createdAt,value
2017-09-02T00:01:52.275Z,8.80
2017-09-02T00:04:19.719Z,7.53
2017-09-02T00:06:47.163Z,8.70
2017-09-02T00:09:14.602Z,9.30
2017-09-02T00:11:42.054Z,8.20
2017-09-02T00:14:09.496Z,8.60
2017-09-02T00:16:36.927Z,8.83
2017-09-02T00:19:04.379Z,10.47
2017-09-02T00:21:31.828Z,9.27
2017-09-02T00:23:59.271Z,9.23
2017-09-02T00:26:26.716Z,9.33
2017-09-02T00:28:54.167Z,9.97
2017-09-02T00:31:21.611Z,10.07
2017-09-02T00:33:49.071Z,10.67
2017-09-02T00:36:16.523Z,10.10
2017-09-02T00:38:43.979Z,10.47
2017-09-02T00:41:11.436Z,10.33
2017-09-02T00:43:38.910Z,9.73
2017-09-02T00:46:06.350Z,9.60
2017-09-02T00:48:33.792Z,9.10
2017-09-02T00:51:01.231Z,9.90
2017-09-02T00:53:28.679Z,10.87
2017-09-02T00:55:56.135Z,10.57
2017-09-02T00:58:23.579Z,11.53
2017-09-02T01:00:51.035Z,12.03
2017-09-02T01:03:18.480Z,12.03
2017-09-02T01:05:45.947Z,12.50
2017-09-02T01:08:13.395Z,12.47
2017-09-02T01:10:40.847Z,13.47
2017-09-02T01:13:08.296Z,13.40
2017-09-02T01:15:35.741Z,14.17
2017-09-02T01:18:03.191Z,13.40
2017-09-02T01:20:30.650Z,13.37
2017-09-02T01:22:58.107Z,13.77
2017-09-02T01:25:25.563Z,12.93
2017-09-02T01:27:53.021Z,12.23
2017-09-02T01:30:26.222Z,11.17
2017-09-02T01:32:53.670Z,11.87
2017-09-02T01:35:21.124Z,13.90
2017-09-02T01:37:48.585Z,12.33
2017-09-02T01:40:16.035Z,12.20
2017-09-02T01:42:43.492Z,11.93
2017-09-02T01:45:10.948Z,13.70
2017-09-02T01:47:38.414Z,14.43
2017-09-02T01:50:05.858Z,14.40
2017-09-02T01:52:33.308Z,13.00
2017-09-02T01:55:00.751Z,13.07
2017-09-02T01:57:28.196Z,12.93
2017-09-02T01:59:55.648Z,14.63
2017-09-02T02:02:23.095Z,13.30
2017-09-02T02:04:50.542Z,12.40
2017-09-02T02:07:17.987Z,14.20
2017-09-02T02:09:45.443Z,14.33
2017-09-02T02:12:12.887Z,12.50
2017-09-02T02:14:40.347Z,12.93
2017-09-02T02:17:07.797Z,13.50
2017-09-02T02:19:35.252Z,12.60
2017-09-02T02:22:02.692Z,13.57
2017-09-02T02:24:30.142Z,11.23
2017-09-02T02:26:57.615Z,11.87
2017-09-02T02:29:25.066Z,11.00
2017-09-02T02:31:52.516Z,12.17
2017-09-02T02:34:19.972Z,11.30
2017-09-02T02:36:47.427Z,12.00
2017-09-02T02:39:14.884Z,11.70
2017-09-02T02:41:42.340Z,11.90
2017-09-02T02:44:09.778Z,11.63
2017-09-02T02:46:37.229Z,12.10
2017-09-02T02:49:04.675Z,13.00
2017-09-02T02:51:32.127Z,14.20
2017-09-02T02:53:59.573Z,13.40
2017-09-02T02:56:27.027Z,12.80
2017-09-02T02:58:54.471Z,12.30
2017-09-02T03:01:21.922Z,11.93
2017-09-02T03:03:49.379Z,11.73
2017-09-02T03:06:16.835Z,12.53
2017-09-02T03:08:44.284Z,13.43
2017-09-02T03:11:11.727Z,12.77
2017-09-02T03:13:39.166Z,13.17
2017-09-02T03:16:06.664Z,12.27
2017-09-02T03:18:34.106Z,12.70
2017-09-02T03:21:01.547Z,14.23
2017-09-02T03:23:29.004Z,14.00
2017-09-02T03:25:56.451Z,13.47
2017-09-02T03:28:23.906Z,13.10
2017-09-02T03:30:51.363Z,14.23
2017-09-02T03:33:18.815Z,14.10
2017-09-02T03:35:46.264Z,14.07
2017-09-02T03:38:13.735Z,14.27
2017-09-02T03:40:41.188Z,13.93
2017-09-02T03:43:08.643Z,13.47
2017-09-02T03:45:36.098Z,11.97
2017-09-02T03:48:03.555Z,13.30
2017-09-02T03:50:31.011Z,12.00
2017-09-02T03:52:58.471Z,12.73
2017-09-02T03:55:25.927Z,13.10
2017-09-02T03:57:53.366Z,12.20
2017-09-02T04:00:20.815Z,11.33
2017-09-02T04:02:48.261Z,13.40
2017-09-02T04:05:15.706Z,12.47
2017-09-02T04:07:43.146Z,12.83
2017-09-02T04:10:10.594Z,12.67
2017-09-02T04:12:38.053Z,12.80
2017-09-02T04:15:05.510Z,12.40
2017-09-02T04:17:32.955Z,12.63
2017-09-02T04:20:00.407Z,12.27
2017-09-02T04:22:27.855Z,12.73
2017-09-02T04:24:55.313Z,13.00
2017-09-02T04:27:22.755Z,12.23
2017-09-02T04:29:50.212Z,13.97
2017-09-02T04:32:17.667Z,14.10
2017-09-02T04:34:45.134Z,13.10
2017-09-02T04:37:12.578Z,13.83
2017-09-02T04:39:40.035Z,14.43
2017-09-02T04:42:07.492Z,14.60
2017-09-02T04:44:34.947Z,14.47
2017-09-02T04:47:03.171Z,14.10
2017-09-02T04:49:30.617Z,13.87
2017-09-02T04:51:58.071Z,13.90
2017-09-02T04:54:26.279Z,15.10
2017-09-02T04:56:53.731Z,13.57
2017-09-02T04:59:21.178Z,13.40
2017-09-02T05:01:48.634Z,13.50
2017-09-02T05:04:16.071Z,14.00
2017-09-02T05:06:43.522Z,14.97
2017-09-02T05:09:10.979Z,15.90
2017-09-02T05:11:38.451Z,16.40
2017-09-02T05:14:05.895Z,14.57
2017-09-02T05:16:33.338Z,14.27
2017-09-02T05:19:00.790Z,15.30
2017-09-02T05:21:28.240Z,14.90
2017-09-02T05:23:55.695Z,14.30
2017-09-02T05:26:23.151Z,14.27
2017-09-02T05:28:50.607Z,15.00
2017-09-02T05:31:18.051Z,15.23
2017-09-02T05:33:45.507Z,14.50
2017-09-02T05:36:12.964Z,13.93
2017-09-02T05:38:41.326Z,14.27
2017-09-02T05:41:08.771Z,14.40
2017-09-02T05:43:36.989Z,14.37
2017-09-02T05:46:04.430Z,14.70
2017-09-02T05:48:31.883Z,15.10
2017-09-02T05:50:59.319Z,16.00
2017-09-02T05:53:26.771Z,14.87
2017-09-02T05:55:54.214Z,14.77
2017-09-02T05:58:21.680Z,14.20
2017-09-02T06:00:49.114Z,15.00
2017-09-02T06:03:16.558Z,14.10
2017-09-02T06:05:44.011Z,14.87
2017-09-02T06:08:11.461Z,15.13
2017-09-02T06:10:38.906Z,14.10
2017-09-02T06:13:06.346Z,14.63
2017-09-02T06:15:33.810Z,14.03
2017-09-02T06:18:01.251Z,13.70
2017-09-02T06:20:28.705Z,15.20
2017-09-02T06:22:56.160Z,13.77
2017-09-02T06:25:23.619Z,15.17
2017-09-02T06:27:51.058Z,15.00
2017-09-02T06:30:18.503Z,15.53
2017-09-02T06:32:45.951Z,15.37
2017-09-02T06:35:13.391Z,16.90
2017-09-02T06:37:40.880Z,16.40
2017-09-02T06:40:09.083Z,16.50
2017-09-02T06:42:36.530Z,16.33
2017-09-02T06:45:03.987Z,16.47
2017-09-02T06:47:31.443Z,16.17
2017-09-02T06:49:58.895Z,16.80
2017-09-02T06:52:26.338Z,16.10
2017-09-02T06:54:53.783Z,16.93
2017-09-02T06:57:21.270Z,16.77
2017-09-02T06:59:48.707Z,16.43
2017-09-02T07:02:16.179Z,15.33
2017-09-02T07:04:43.640Z,16.67
2017-09-02T07:07:11.084Z,16.47
2017-09-02T07:09:38.534Z,15.80
2017-09-02T07:12:05.979Z,16.60
2017-09-02T07:14:33.435Z,16.30
2017-09-02T07:17:00.883Z,16.83
2017-09-02T07:19:28.341Z,16.23
2017-09-02T07:21:56.547Z,15.97
2017-09-02T07:24:24.002Z,16.67
2017-09-02T07:26:51.456Z,16.00
2017-09-02T07:29:18.916Z,16.70
2017-09-02T07:31:46.371Z,15.67
2017-09-02T07:34:13.839Z,15.50
2017-09-02T07:36:41.287Z,19.70
2017-09-02T07:39:08.780Z,18.23
2017-09-02T07:41:36.519Z,18.63
2017-09-02T07:44:03.986Z,19.30
2017-09-02T07:46:31.426Z,20.40
2017-09-02T07:48:58.874Z,19.00
2017-09-02T07:51:26.334Z,18.13
2017-09-02T07:53:53.788Z,17.30
2017-09-02T07:56:21.255Z,17.73
2017-09-02T07:58:48.710Z,17.03
2017-09-02T08:01:16.185Z,18.10
2017-09-02T08:03:43.622Z,18.80
2017-09-02T08:06:11.092Z,25.93
2017-09-02T08:08:38.548Z,20.03
2017-09-02T08:11:05.994Z,16.60
2017-09-02T08:13:33.452Z,16.37
2017-09-02T08:16:00.890Z,15.67
2017-09-02T08:18:28.347Z,17.80
2017-09-02T08:20:55.796Z,16.53
2017-09-02T08:23:23.247Z,17.83
2017-09-02T08:25:50.859Z,18.57
2017-09-02T08:28:18.299Z,16.07
2017-09-02T08:30:45.742Z,17.20
2017-09-02T08:33:13.214Z,17.17
2017-09-02T08:35:40.662Z,18.40
2017-09-02T08:38:08.111Z,17.43
2017-09-02T08:40:35.556Z,20.73
2017-09-02T08:43:03.005Z,16.90
2017-09-02T08:45:30.443Z,14.50
2017-09-02T08:47:57.898Z,15.17
2017-09-02T08:50:25.343Z,14.10
2017-09-02T08:52:52.825Z,12.93
2017-09-02T08:55:20.263Z,14.43
2017-09-02T08:57:47.715Z,14.03
2017-09-02T09:00:15.936Z,13.23
2017-09-02T09:02:43.399Z,12.67
2017-09-02T09:05:10.852Z,12.23
2017-09-02T09:07:38.295Z,12.27
2017-09-02T09:10:05.747Z,11.23
2017-09-02T09:12:33.191Z,9.27
2017-09-02T09:15:00.650Z,11.40
2017-09-02T09:17:28.100Z,10.07
2017-09-02T09:19:55.574Z,9.97
2017-09-02T09:22:23.045Z,10.80
2017-09-02T09:24:50.514Z,9.10
2017-09-02T09:27:17.963Z,10.23
2017-09-02T09:29:45.839Z,9.50
2017-09-02T09:32:13.331Z,9.13
2017-09-02T09:34:40.774Z,10.00
2017-09-02T09:37:08.250Z,9.30
2017-09-02T09:39:35.690Z,9.17
2017-09-02T09:42:03.140Z,9.20
2017-09-02T09:44:30.580Z,8.07
2017-09-02T09:46:58.039Z,7.97
2017-09-02T09:49:25.480Z,7.47
2017-09-02T09:51:52.935Z,8.70
2017-09-02T09:54:20.380Z,8.10
2017-09-02T09:56:47.823Z,9.10
2017-09-02T09:59:15.270Z,8.80
2017-09-02T10:01:43.476Z,8.70
2017-09-02T10:04:10.919Z,9.20
2017-09-02T10:06:38.393Z,8.90
2017-09-02T10:09:05.828Z,7.57
2017-09-02T10:11:33.270Z,7.40
2017-09-02T10:14:00.738Z,7.27
2017-09-02T10:16:28.171Z,6.83
2017-09-02T10:18:55.619Z,8.20
2017-09-02T10:21:23.059Z,7.83
2017-09-02T10:23:50.502Z,8.00
2017-09-02T10:26:17.951Z,8.47
2017-09-02T10:28:45.394Z,8.23
2017-09-02T10:31:12.834Z,8.77
2017-09-02T10:33:40.285Z,8.60
2017-09-02T10:36:07.739Z,8.20
2017-09-02T10:38:35.946Z,8.97
2017-09-02T10:41:03.395Z,8.87
2017-09-02T10:43:30.849Z,8.27
2017-09-02T10:45:58.299Z,8.70
2017-09-02T10:48:25.747Z,9.47
2017-09-02T10:50:53.194Z,8.53
2017-09-02T10:53:20.630Z,7.93
2017-09-02T10:55:48.080Z,8.47
2017-09-02T10:58:15.518Z,7.93
2017-09-02T11:00:42.971Z,8.60
2017-09-02T11:03:10.410Z,7.70
2017-09-02T11:05:37.858Z,9.00
2017-09-02T11:08:05.302Z,9.83
2017-09-02T11:10:32.766Z,8.60
2017-09-02T11:13:00.203Z,8.60
2017-09-02T11:15:27.639Z,8.00
2017-09-02T11:17:55.091Z,7.90
2017-09-02T11:20:22.530Z,6.97
2017-09-02T11:22:49.978Z,6.97
2017-09-02T11:25:17.410Z,7.83
2017-09-02T11:27:44.859Z,8.00
2017-09-02T11:30:12.298Z,7.13
2017-09-02T11:32:39.746Z,7.83
2017-09-02T11:35:07.174Z,6.70
2017-09-02T11:37:34.618Z,6.83
2017-09-02T11:40:02.107Z,7.63
2017-09-02T11:42:30.326Z,7.50
2017-09-02T11:44:57.771Z,6.70
2017-09-02T11:47:25.235Z,6.50
2017-09-02T11:49:52.680Z,6.90
2017-09-02T11:52:20.219Z,6.93
2017-09-02T11:54:47.659Z,6.23
2017-09-02T11:57:15.107Z,7.07
2017-09-02T11:59:42.543Z,6.87
2017-09-02T12:02:10.002Z,7.50
2017-09-02T12:04:37.454Z,7.20
2017-09-02T12:07:04.886Z,6.93
2017-09-02T12:09:32.350Z,7.03
2017-09-02T12:11:59.799Z,6.80
2017-09-02T12:14:27.244Z,7.73
2017-09-02T12:16:54.698Z,7.13
2017-09-02T12:19:22.141Z,6.80
2017-09-02T12:21:49.575Z,6.97
2017-09-02T12:24:17.040Z,6.87
2017-09-02T12:26:44.483Z,6.70
2017-09-02T12:29:12.699Z,7.00
2017-09-02T12:31:40.151Z,6.00
2017-09-02T12:34:07.608Z,6.23
2017-09-02T12:36:35.064Z,6.57
2017-09-02T12:39:02.501Z,6.63
2017-09-02T12:41:29.947Z,6.60
2017-09-02T12:43:57.383Z,6.27
2017-09-02T12:46:24.827Z,5.80
2017-09-02T12:48:52.272Z,6.50
2017-09-02T12:51:19.720Z,6.30
2017-09-02T12:53:47.184Z,5.37
2017-09-02T12:56:14.630Z,5.43
2017-09-02T12:58:42.070Z,5.83
2017-09-02T13:01:09.526Z,6.33
2017-09-02T13:03:36.976Z,6.40
2017-09-02T13:06:04.424Z,6.00
2017-09-02T13:08:31.863Z,5.30
2017-09-02T13:10:59.319Z,5.47
2017-09-02T13:13:26.756Z,5.90
2017-09-02T13:15:54.203Z,6.53
2017-09-02T13:18:21.643Z,5.57
2017-09-02T13:20:49.074Z,5.30
2017-09-02T13:23:16.518Z,5.53
2017-09-02T13:25:43.951Z,4.80
2017-09-02T13:28:12.159Z,5.07
2017-09-02T13:30:39.615Z,4.67
2017-09-02T13:33:07.066Z,4.73
2017-09-02T13:35:34.502Z,4.63
2017-09-02T13:38:01.951Z,4.80
2017-09-02T13:40:29.396Z,5.37
2017-09-02T13:42:56.843Z,5.70
2017-09-02T13:45:24.292Z,5.53
2017-09-02T13:47:51.747Z,5.60
2017-09-02T13:50:19.716Z,6.37
2017-09-02T13:52:47.234Z,5.50
2017-09-02T13:55:14.669Z,6.57
2017-09-02T13:57:42.140Z,6.30
2017-09-02T14:00:09.575Z,5.80
2017-09-02T14:02:37.014Z,5.30
2017-09-02T14:05:04.453Z,5.17
2017-09-02T14:07:31.909Z,4.70
2017-09-02T14:09:59.360Z,5.50
2017-09-02T14:12:26.793Z,4.83
2017-09-02T14:14:54.251Z,5.40
2017-09-02T14:17:21.695Z,5.10
2017-09-02T14:19:49.151Z,6.00
2017-09-02T14:22:16.608Z,5.50
2017-09-02T14:24:44.063Z,4.97
2017-09-02T14:27:11.521Z,5.00
2017-09-02T14:29:38.969Z,4.43
2017-09-02T14:32:06.407Z,4.60
2017-09-02T14:34:33.850Z,5.00
2017-09-02T14:37:01.286Z,5.13
2017-09-02T14:39:28.756Z,4.93
2017-09-02T14:41:56.190Z,4.70
2017-09-02T14:44:23.631Z,4.80
2017-09-02T14:46:51.083Z,4.87
2017-09-02T14:49:18.523Z,5.33
2017-09-02T14:51:45.974Z,5.10
2017-09-02T14:54:13.403Z,4.70
2017-09-02T14:56:40.852Z,4.70
2017-09-02T14:59:08.287Z,4.23
2017-09-02T15:01:35.736Z,5.00
2017-09-02T15:04:03.170Z,5.33
2017-09-02T15:06:30.616Z,4.27
2017-09-02T15:08:58.058Z,5.23
2017-09-02T15:11:25.498Z,5.60
2017-09-02T15:13:52.934Z,6.07
2017-09-02T15:16:20.385Z,4.70
2017-09-02T15:18:47.822Z,5.27
2017-09-02T15:21:15.295Z,5.37
2017-09-02T15:23:42.730Z,27.73
2017-09-02T15:26:10.174Z,7.13
2017-09-02T15:28:37.647Z,6.70
2017-09-02T15:31:05.102Z,5.00
2017-09-02T15:33:32.559Z,5.20
2017-09-02T15:35:59.998Z,4.93
2017-09-02T15:38:27.441Z,4.50
2017-09-02T15:40:54.888Z,5.33
2017-09-02T15:43:22.325Z,5.00
2017-09-02T15:45:49.764Z,4.67
2017-09-02T15:48:17.202Z,4.57
2017-09-02T15:53:18.531Z,5.40
2017-09-02T15:55:45.975Z,5.87
2017-09-02T15:58:13.556Z,5.97
2017-09-02T16:00:41.005Z,5.67
2017-09-02T16:03:08.447Z,6.60
2017-09-02T16:05:35.894Z,5.60
2017-09-02T16:08:03.326Z,5.23
2017-09-02T16:10:30.770Z,5.90
2017-09-02T16:12:58.211Z,5.70
2017-09-02T16:15:25.656Z,5.20
2017-09-02T16:17:53.092Z,6.27
2017-09-02T16:20:20.550Z,5.10
2017-09-02T16:22:48.004Z,5.00
2017-09-02T16:25:15.436Z,5.57
2017-09-02T16:27:42.878Z,4.90
2017-09-02T16:30:10.323Z,4.97
2017-09-02T16:32:37.767Z,4.10
2017-09-02T16:35:05.211Z,4.80
2017-09-02T16:37:32.654Z,5.17
2017-09-02T16:40:00.099Z,4.90
2017-09-02T16:42:27.556Z,4.97
2017-09-02T16:44:55.085Z,4.43
2017-09-02T16:47:22.521Z,4.97
2017-09-02T16:49:49.971Z,4.20
2017-09-02T16:52:17.415Z,4.10
2017-09-02T16:54:44.867Z,4.50
2017-09-02T16:57:12.314Z,3.80
2017-09-02T16:59:39.746Z,4.40
2017-09-02T17:02:07.187Z,4.50
2017-09-02T17:04:34.630Z,4.53
2017-09-02T17:07:02.079Z,4.93
2017-09-02T17:09:29.571Z,4.90
2017-09-02T17:11:57.046Z,5.80
2017-09-02T17:14:24.484Z,4.53
2017-09-02T17:16:51.923Z,4.63
2017-09-02T17:19:19.354Z,4.80
2017-09-02T17:21:46.795Z,5.07
2017-09-02T17:24:14.248Z,5.20
2017-09-02T17:26:41.701Z,4.60
2017-09-02T17:29:09.135Z,4.67
2017-09-02T17:31:36.580Z,4.60
2017-09-02T17:34:04.033Z,5.63
2017-09-02T17:36:32.243Z,5.80
2017-09-02T17:39:00.443Z,5.40
2017-09-02T17:41:28.654Z,4.90
2017-09-02T17:43:56.100Z,5.10
2017-09-02T17:46:23.539Z,5.07
2017-09-02T17:48:51.331Z,4.60
2017-09-02T17:51:18.807Z,5.17
2017-09-02T17:53:46.257Z,6.20
2017-09-02T17:56:13.700Z,6.17
2017-09-02T17:58:41.154Z,5.30
2017-09-02T18:01:08.634Z,6.60
2017-09-02T18:03:36.083Z,4.97
2017-09-02T18:06:03.529Z,4.50
2017-09-02T18:08:30.979Z,4.87
2017-09-02T18:10:58.419Z,4.87
2017-09-02T18:13:25.861Z,5.97
2017-09-02T18:15:54.067Z,5.13
2017-09-02T18:18:21.507Z,5.43
2017-09-02T18:20:48.947Z,4.87
2017-09-02T18:23:17.165Z,5.00
2017-09-02T18:25:44.607Z,5.10
2017-09-02T18:28:12.063Z,4.87
2017-09-02T18:30:39.503Z,5.00
2017-09-02T18:33:06.947Z,5.27
2017-09-02T18:35:34.390Z,4.97
2017-09-02T18:38:01.839Z,5.50
2017-09-02T18:40:29.288Z,5.10
2017-09-02T18:42:56.737Z,5.03
2017-09-02T18:45:24.177Z,5.60
2017-09-02T18:47:51.623Z,5.13
2017-09-02T18:50:19.838Z,5.00
2017-09-02T18:52:47.288Z,7.27
2017-09-02T18:55:14.729Z,7.37
2017-09-02T18:57:42.166Z,7.60
2017-09-02T19:00:09.623Z,7.43
2017-09-02T19:02:37.066Z,7.10
2017-09-02T19:05:04.569Z,6.73
2017-09-02T19:07:32.030Z,6.90
2017-09-02T19:09:59.481Z,6.13
2017-09-02T19:12:26.927Z,6.60
2017-09-02T19:14:54.370Z,6.87
2017-09-02T19:17:21.807Z,6.70
2017-09-02T19:19:49.247Z,6.40
2017-09-02T19:22:16.715Z,6.67
2017-09-02T19:24:44.139Z,8.03
2017-09-02T19:27:11.589Z,7.57
2017-09-02T19:29:39.109Z,7.70
2017-09-02T19:32:06.564Z,7.03
2017-09-02T19:34:33.997Z,6.50
2017-09-02T19:37:01.450Z,8.10
2017-09-02T19:39:28.883Z,7.40
2017-09-02T19:41:56.329Z,7.23
2017-09-02T19:44:23.768Z,7.40
2017-09-02T19:46:51.219Z,7.87
2017-09-02T19:49:18.662Z,8.30
2017-09-02T19:51:46.943Z,9.30
2017-09-02T19:54:14.374Z,8.97
2017-09-02T19:56:41.822Z,9.07
2017-09-02T19:59:09.259Z,8.70
2017-09-02T20:01:36.732Z,8.40
2017-09-02T20:04:04.175Z,8.67
2017-09-02T20:06:31.606Z,8.33
2017-09-02T20:08:59.050Z,8.30
2017-09-02T20:11:26.509Z,9.00
2017-09-02T20:13:53.947Z,8.00
2017-09-02T20:16:21.385Z,8.20
2017-09-02T20:18:48.835Z,7.83
2017-09-02T20:21:16.639Z,8.07
2017-09-02T20:26:18.096Z,7.43
2017-09-02T20:28:45.555Z,8.07
2017-09-02T20:31:12.994Z,8.67
2017-09-02T20:33:40.526Z,7.60
2017-09-02T20:36:07.954Z,8.70
2017-09-02T20:38:35.399Z,8.37
2017-09-02T20:41:02.858Z,8.50
2017-09-02T20:43:30.298Z,8.77
2017-09-02T20:45:57.743Z,7.73
2017-09-02T20:48:25.200Z,9.50
2017-09-02T20:50:52.643Z,9.87
2017-09-02T20:53:20.117Z,8.87
2017-09-02T20:55:47.556Z,9.57
2017-09-02T20:58:14.999Z,10.10
2017-09-02T21:00:42.457Z,11.47
2017-09-02T21:03:09.898Z,11.27
2017-09-02T21:05:37.368Z,10.20
2017-09-02T21:08:04.810Z,9.40
2017-09-02T21:10:32.527Z,9.77
2017-09-02T21:13:00.135Z,9.10
2017-09-02T21:15:28.044Z,8.90
2017-09-02T21:17:55.783Z,8.90
2017-09-02T21:20:24.039Z,9.50
2017-09-02T21:22:51.482Z,8.70
2017-09-02T21:25:18.914Z,8.97
2017-09-02T21:27:46.362Z,9.27
2017-09-02T21:30:14.228Z,10.27
2017-09-02T21:32:41.680Z,9.97
2017-09-02T21:35:09.118Z,9.20
2017-09-02T21:37:36.579Z,9.10
2017-09-02T21:40:04.021Z,10.30
2017-09-02T21:42:31.479Z,10.07
2017-09-02T21:44:58.923Z,9.83
2017-09-02T21:47:26.378Z,10.27
2017-09-02T21:49:53.821Z,9.43
2017-09-02T21:52:21.280Z,10.23
2017-09-02T21:54:48.732Z,10.20
2017-09-02T21:57:16.178Z,9.97
2017-09-02T21:59:43.622Z,9.87
2017-09-02T22:02:11.068Z,10.30
2017-09-02T22:04:38.509Z,8.70
2017-09-02T22:07:05.948Z,8.70
2017-09-02T22:09:33.395Z,8.77
2017-09-02T22:12:00.841Z,8.80
2017-09-02T22:14:28.287Z,10.13
2017-09-02T22:16:55.726Z,9.70
2017-09-02T22:19:23.182Z,9.67
2017-09-02T22:21:50.627Z,9.30
2017-09-02T22:24:18.071Z,9.33
2017-09-02T22:26:45.516Z,10.47
2017-09-02T22:29:12.966Z,10.27
2017-09-02T22:31:40.403Z,10.27
2017-09-02T22:34:07.854Z,10.33
2017-09-02T22:36:35.303Z,10.37
2017-09-02T22:39:02.744Z,10.07
2017-09-02T22:41:30.199Z,9.97
2017-09-02T22:43:57.654Z,10.80
2017-09-02T22:46:25.110Z,9.83
2017-09-02T22:48:52.567Z,9.10
2017-09-02T22:51:20.008Z,8.90
2017-09-02T22:53:47.444Z,9.30
2017-09-02T22:56:14.891Z,9.57
2017-09-02T22:58:42.339Z,9.50
2017-09-02T23:01:09.783Z,9.07
2017-09-02T23:03:37.227Z,8.80
2017-09-02T23:06:04.674Z,10.50
2017-09-02T23:08:32.217Z,9.17
2017-09-02T23:10:59.674Z,9.37
2017-09-02T23:13:27.115Z,8.93
2017-09-02T23:15:54.560Z,10.20
2017-09-02T23:18:22.016Z,9.10
2017-09-02T23:20:49.431Z,8.63
2017-09-02T23:23:16.884Z,8.67
2017-09-02T23:25:44.331Z,9.10
2017-09-02T23:28:11.787Z,9.73
2017-09-02T23:30:39.230Z,9.40
2017-09-02T23:33:06.675Z,8.13
2017-09-02T23:35:34.119Z,8.10
2017-09-02T23:38:01.565Z,9.13
2017-09-02T23:40:29.002Z,8.47
2017-09-02T23:42:56.455Z,8.03
2017-09-02T23:45:23.903Z,9.27
2017-09-02T23:47:51.347Z,8.20
2017-09-02T23:50:18.783Z,7.40
2017-09-02T23:52:46.223Z,7.93
2017-09-02T23:55:13.653Z,8.00
2017-09-02T23:57:41.095Z,7.10
